Flight Track Log - Related Links

Times and Time Zones

All times are in EDT time to prevent confusion due to time zone crossing. See the LMO7602 flight status page for this flight to view local times or setup timezone preferences in your user account.

Time Position Orientation Groundspeed Altitude Reporting Facility
EDT Latitude Longitude Course Direction KTS MPH feet Rate Location/Type
Mon 02:56:50 AM 29.6728 -95.2606 18° North 158 182 1,900  Level Houston Center
Mon 02:57:51 AM 29.6933 -95.3036 299° West 158 182 3,800 1,568 Climbing Houston Center
Mon 02:58:18 AM 29.6967 -95.3150 289° West 167 192 4,200 1,793 Climbing Houston Center
Mon 02:59:18 AM 29.7117 -95.3756 286° West 192 221 6,400 2,200 Climbing Houston Center
Mon 03:00:18 AM 29.7342 -95.4683 286° West 241 277 8,600 2,100 Climbing Houston Center
Mon 03:01:18 AM 29.7492 -95.5525 282° West 263 303 10,600 2,100 Climbing Houston Center
Mon 03:02:18 AM 29.7681 -95.6347 285° West 273 314 12,800 2,100 Climbing Houston Center
Mon 03:03:18 AM 29.7861 -95.7197 284° West 274 315 14,800 2,000 Climbing Houston Center
Mon 03:04:18 AM 29.8058 -95.8075 285° West 283 326 16,800 1,650 Climbing Houston Center
Mon 03:05:18 AM 29.8261 -95.8989 284° West 294 338 18,100 1,388 Climbing Houston Center
Mon 03:06:19 AM 29.8461 -95.9944 284° West 306 352 19,600 1,438 Climbing Houston Center
Mon 03:07:19 AM 29.8647 -96.0856 283° West 316 364 21,000 1,450 Climbing Houston Center
Mon 03:08:19 AM 29.8861 -96.1847 284° West 321 369 22,500 1,500 Climbing Houston Center
Mon 03:09:19 AM 29.9064 -96.2856 283° West 323 372 24,000 1,500 Climbing Houston Center
Mon 03:10:19 AM 29.9278 -96.3856 284° West 322 371 25,500 1,500 Climbing Houston Center
Mon 03:11:19 AM 29.9486 -96.4833 284° West 317 365 27,000 1,400 Climbing Houston Center
Mon 03:12:19 AM 29.9686 -96.5806 283° West 315 362 28,300 1,150 Climbing Houston Center
Mon 03:13:19 AM 29.9894 -96.6808 284° West 321 369 29,300 1,041 Climbing Houston Center
Mon 03:14:20 AM 30.0097 -96.7792 283° West 319 367 30,400 1,091 Climbing Houston Center
Mon 03:15:20 AM 30.0303 -96.8783 283° West 319 367 31,500 1,050 Climbing Houston Center
Mon 03:16:20 AM 30.0497 -96.9764 283° West 317 365 32,500 1,050 Climbing Houston Center
Mon 03:17:20 AM 30.0706 -97.0731 284° West 313 360 33,600 800 Climbing Houston Center
Mon 03:18:20 AM 30.0911 -97.1711 284° West 315 362 34,100 400 Climbing Houston Center
Mon 03:19:20 AM 30.1142 -97.2814 284° West 334 384 34,400 350 Climbing Houston Center
Mon 03:20:20 AM 30.1361 -97.3933 283° West 348 400 34,800 347 Climbing Houston Center
Mon 03:21:21 AM 30.1603 -97.5081 284° West 359 413 35,100 298 Climbing Houston Center
Mon 03:22:21 AM 30.1839 -97.6239 283° West 364 419 35,400 350 Climbing Houston Center
Mon 03:23:21 AM 30.2083 -97.7419 284° West 372 428 35,800 450 Climbing Houston Center
Mon 03:24:21 AM 30.2317 -97.8586 283° West 370 426 36,300 550 Climbing Houston Center
Mon 03:25:21 AM 30.2544 -97.9797 282° West 363 418 36,900 600 Climbing Houston Center
Mon 03:26:21 AM 30.2761 -98.0931 283° West 361 415 37,500 550 Climbing Houston Center
Mon 03:27:21 AM 30.2975 -98.2056 282° West 362 417 38,000 248 Climbing Houston Center
Mon 03:28:22 AM 30.3194 -98.3167 283° West 361 415 38,000  Level Houston Center
Mon 03:29:22 AM 30.3433 -98.4353 283° West 371 427 38,000  Level Houston Center
Mon 03:30:22 AM 30.3622 -98.5344 282° West 373 429 38,000  Level Houston Center
Mon 03:31:22 AM 30.3856 -98.6553 283° West 380 437 38,000  Level Houston Center
Mon 03:32:22 AM 30.4086 -98.7756 283° West 380 437 38,000  Level Houston Center
Mon 03:33:22 AM 30.4333 -98.8961 283° West 381 438 38,000  Level Houston Center
Mon 03:34:23 AM 30.4544 -99.0161 282° West 379 436 38,000  Level Houston Center
Mon 03:35:23 AM 30.4786 -99.1408 283° West 377 434 38,000  Level Houston Center
Mon 03:36:23 AM 30.5006 -99.2594 282° West 377 434 38,000  Level Houston Center
Mon 03:37:23 AM 30.5239 -99.3781 283° West 378 435 38,000  Level Houston Center
Mon 03:38:23 AM 30.5461 -99.4969 282° West 379 436 38,000  Level Houston Center
Mon 03:39:23 AM 30.5692 -99.6164 283° West 381 438 38,000  Level Houston Center
Mon 03:40:24 AM 30.5892 -99.7344 281° West 378 435 38,000  Level Houston Center
Mon 03:41:24 AM 30.6114 -99.8533 282° West 378 435 38,000  Level Houston Center
Mon 03:42:24 AM 30.6322 -99.9725 282° West 380 437 38,000  Level Houston Center
Mon 03:43:24 AM 30.6539 -100.0922 282° West 380 437 38,000  Level Houston Center
Mon 03:44:24 AM 30.6758 -100.2122 282° West 382 440 38,000  Level Houston Center
Mon 03:45:24 AM 30.6958 -100.3303 281° West 383 441 38,000  Level Houston Center
Mon 03:46:25 AM 30.7181 -100.4497 282° West 388 447 38,000  Level Houston Center
Mon 03:47:25 AM 30.7389 -100.5700 281° West 385 443 38,000  Level Houston Center
Mon 03:48:25 AM 30.7583 -100.6917 281° West 384 442 38,000  Level Houston Center
Mon 03:49:25 AM 30.7808 -100.8108 282° West 382 440 38,000  Level Houston Center
Mon 03:50:25 AM 30.8025 -100.9311 282° West 383 441 38,000  Level Houston Center
Mon 03:51:25 AM 30.8225 -101.0536 281° West 387 445 38,000  Level Houston Center
Mon 03:52:26 AM 30.8417 -101.1742 281° West 385 443 38,000  Level Houston Center
Mon 03:53:26 AM 30.8650 -101.2917 283° West 379 436 38,000  Level Houston Center
Mon 03:54:13 AM 30.8814 -101.3936 281° West 383 441 38,000  Level Albuquerque Center
Mon 03:55:13 AM 30.9008 -101.5175 280° West 386 444 38,000  Level Albuquerque Center
Mon 03:56:13 AM 30.9208 -101.6394 281° West 386 444 38,000  Level Albuquerque Center
Mon 03:57:13 AM 30.9411 -101.7614 281° West 384 442 38,000  Level Albuquerque Center
Mon 03:58:14 AM 30.9617 -101.8836 281° West 384 442 38,000  Level Albuquerque Center
Mon 03:59:14 AM 30.9806 -102.0067 280° West 384 442 38,000  Level Albuquerque Center
Mon 04:00:15 AM 31.0028 -102.1486 280° West 397 457 38,000  Level Albuquerque Center
Mon 04:01:15 AM 31.0236 -102.2703 281° West 389 448 38,000  Level Albuquerque Center
Mon 04:02:15 AM 31.0433 -102.3922 281° West 384 442 38,000  Level Albuquerque Center
Mon 04:03:16 AM 31.0631 -102.5147 281° West 384 442 38,000  Level Albuquerque Center
Mon 04:04:16 AM 31.0800 -102.6269 280° West 382 440 38,000  Level Albuquerque Center
Mon 04:05:16 AM 31.1000 -102.7511 281° West 386 444 38,000  Level Albuquerque Center
Mon 04:06:17 AM 31.1189 -102.8733 280° West 384 442 38,000  Level Albuquerque Center
Mon 04:07:17 AM 31.1383 -102.9961 281° West 384 442 38,000  Level Albuquerque Center
Mon 04:08:17 AM 31.1569 -103.1189 280° West 383 441 38,000  Level Albuquerque Center
Mon 04:09:17 AM 31.1761 -103.2422 280° West 386 444 38,000  Level Albuquerque Center
Mon 04:10:18 AM 31.1961 -103.3658 281° West 386 444 38,000  Level Albuquerque Center
Mon 04:11:18 AM 31.2158 -103.4892 281° West 387 445 38,000  Level Albuquerque Center
Mon 04:12:18 AM 31.2364 -103.6128 281° West 388 447 38,000  Level Albuquerque Center
Mon 04:13:18 AM 31.2536 -103.7372 279° West 388 447 38,000  Level Albuquerque Center
Mon 04:14:19 AM 31.2733 -103.8694 280° West 389 448 38,000  Level Albuquerque Center
Mon 04:15:19 AM 31.2931 -103.9942 281° West 391 450 38,000  Level Albuquerque Center
Mon 04:16:19 AM 31.3111 -104.1178 280° West 389 448 38,000  Level Albuquerque Center
Mon 04:17:19 AM 31.3289 -104.2422 280° West 389 448 38,000  Level Albuquerque Center
Mon 04:18:20 AM 31.3469 -104.3653 280° West 388 447 38,000  Level Albuquerque Center
Mon 04:19:20 AM 31.3647 -104.4886 280° West 387 445 38,000  Level Albuquerque Center
Mon 04:20:20 AM 31.3822 -104.6117 279° West 386 444 38,000  Level Albuquerque Center
Mon 04:21:20 AM 31.4008 -104.7353 280° West 387 445 38,000  Level Albuquerque Center
Mon 04:22:20 AM 31.4175 -104.8592 279° West 388 447 38,000  Level Albuquerque Center
Mon 04:23:21 AM 31.4358 -104.9839 280° West 391 450 38,000  Level Albuquerque Center
Mon 04:24:21 AM 31.4531 -105.1083 279° West 391 450 38,000  Level Albuquerque Center
Mon 04:25:21 AM 31.4703 -105.2333 279° West 391 450 38,000  Level Albuquerque Center
Mon 04:26:21 AM 31.4869 -105.3597 279° West 395 455 38,000  Level Albuquerque Center
Mon 04:27:21 AM 31.5031 -105.4856 279° West 393 452 38,000  Level Albuquerque Center
Mon 04:28:22 AM 31.5200 -105.6103 279° West 391 450 38,000  Level Albuquerque Center
Mon 04:29:22 AM 31.5364 -105.7358 279° West 392 451 38,000  Level Albuquerque Center
Mon 04:30:22 AM 31.5528 -105.8611 279° West 391 450 38,000  Level Albuquerque Center
Mon 04:31:22 AM 31.5700 -105.9850 279° West 387 445 38,000  Level Albuquerque Center
Mon 04:32:22 AM 31.5892 -106.1333 279° West 387 445 38,000  Level Albuquerque Center
Mon 04:33:23 AM 31.6053 -106.2567 279° West 385 443 38,000  Level Albuquerque Center
Mon 04:34:23 AM 31.6211 -106.3828 278° West 389 448 38,000  Level Albuquerque Center
Mon 04:35:23 AM 31.6381 -106.5083 279° West 392 451 38,000  Level Albuquerque Center
Mon 04:36:23 AM 31.6525 -106.6278 278° West 391 450 38,000  Level Albuquerque Center
Mon 04:37:23 AM 31.6686 -106.7542 279° West 393 452 38,000  Level Albuquerque Center
Mon 04:38:24 AM 31.6853 -106.8800 279° West 390 449 38,000  Level Albuquerque Center
Mon 04:39:24 AM 31.7006 -107.0058 278° West 388 447 38,000  Level Albuquerque Center
Mon 04:40:24 AM 31.7153 -107.1297 278° West 383 441 38,000  Level Albuquerque Center
Mon 04:41:24 AM 31.7303 -107.2539 278° West 382 440 38,000  Level Albuquerque Center
Mon 04:42:24 AM 31.7456 -107.3767 278° West 381 438 38,000  Level Albuquerque Center
Mon 04:43:25 AM 31.7592 -107.5044 277° West 378 435 38,000  Level Albuquerque Center
Mon 04:44:25 AM 31.7733 -107.6253 278° West 377 434 38,000  Level Albuquerque Center
Mon 04:45:25 AM 31.7878 -107.7481 278° West 379 436 38,000  Level Albuquerque Center
Mon 04:46:25 AM 31.8019 -107.8717 278° West 383 441 38,000  Level Albuquerque Center
Mon 04:47:25 AM 31.8153 -107.9969 277° West 386 444 38,000  Level Albuquerque Center
Mon 04:48:26 AM 31.8300 -108.1231 278° West 390 449 38,000  Level Albuquerque Center
Mon 04:49:26 AM 31.8450 -108.2469 278° West 390 449 38,000  Level Albuquerque Center
Mon 04:50:26 AM 31.8583 -108.3722 277° West 388 447 38,000  Level Albuquerque Center
Mon 04:51:26 AM 31.8731 -108.5017 278° West 397 457 38,000 -500 Level Albuquerque Center
Mon 04:52:26 AM 31.8864 -108.6297 277° West 398 458 37,000 -1,537 Descending Albuquerque Center
Mon 04:53:27 AM 31.9011 -108.7631 277° West 408 470 34,900 -2,083 Descending Albuquerque Center
Mon 04:54:27 AM 31.9131 -108.8836 277° West 387 445 32,800 -2,050 Descending Albuquerque Center
Mon 04:55:27 AM 31.9258 -109.0003 277° West 368 423 30,800 -2,050 Descending Albuquerque Center
Mon 04:56:27 AM 31.9372 -109.1122 277° West 355 409 28,700 -2,050 Descending Albuquerque Center
Mon 04:57:27 AM 31.9469 -109.2211 276° West 343 395 26,700 -2,033 Descending Albuquerque Center
Mon 04:58:28 AM 31.9578 -109.3264 277° West 332 382 24,600 -2,132 Descending Albuquerque Center
Mon 04:59:28 AM 31.9675 -109.4344 276° West 333 383 22,400 -2,100 Descending Albuquerque Center
Mon 05:00:28 AM 31.9833 -109.5575 279° West 372 428 20,400 -2,050 Descending Albuquerque Center
Mon 05:01:28 AM 31.9961 -109.6811 277° West 381 438 18,300 -2,100 Descending Albuquerque Center
Mon 05:02:28 AM 32.0056 -109.7836 276° West 335 386 16,200 -2,033 Descending Albuquerque Center
Mon 05:03:29 AM 32.0133 -109.8828 275° West 314 361 14,200 -1,091 Descending Albuquerque Center
Mon 05:04:29 AM 32.0242 -109.9839 277° West 312 359 14,000 -100 Descending Albuquerque Center
Mon 05:05:29 AM 32.0361 -110.1156 276° West 334 384 14,000  Level Albuquerque Center
Mon 05:05:49 AM 32.0414 -110.1511 280° West 341 392 14,000  Level Albuquerque Center
Mon 05:06:13 AM 32.0475 -110.2022 278° West 345 397 14,000 -150 Level Albuquerque Center
Mon 05:06:29 AM 32.0494 -110.2281 275° West 344 396 13,900  Descending Albuquerque Center
Mon 05:07:14 AM 32.0567 -110.3006 277° West 301 346 14,000  Climbing Albuquerque Center
Mon 05:07:29 AM 32.0625 -110.3261 285° West 326 375 13,900 -200 Descending Albuquerque Center
Mon 05:08:14 AM 32.0783 -110.3878 287° West 287 330 13,800 -492 Descending Albuquerque Center
Mon 05:08:30 AM 32.0844 -110.4106 288° West 283 326 13,400 -1,672 Descending Albuquerque Center
Mon 05:09:15 AM 32.1078 -110.4803 292° West 298 343 12,100 -1,600 Descending Albuquerque Center
Mon 05:09:30 AM 32.1172 -110.5017 298° West 296 341 11,800 -1,082 Descending Albuquerque Center
Mon 05:10:16 AM 32.1383 -110.5703 290° West 295 339 11,000 -906 Descending Albuquerque Center
Mon 05:11:16 AM 32.1653 -110.6511 292° West 274 315 10,200 -992 Descending Albuquerque Center
Mon 05:12:17 AM 32.1933 -110.7392 291° West 264 304 9,000 -843 Descending Albuquerque Center
Mon 05:13:17 AM 32.2117 -110.8097 287° West 234 269 8,500 -1,289 Descending Albuquerque Center
Mon 05:14:18 AM 32.2306 -110.8853 286° West 238 274 6,400 -2,016 Descending Albuquerque Center
Mon 05:15:19 AM 32.2150 -110.9475 254° West 209 241 4,400 -1,190 Descending Albuquerque Center
Mon 05:16:19 AM 32.1825 -110.9789 219° Southwest 130 150 4,000 -595 Descending Albuquerque Center
Mon 05:17:20 AM 32.1508 -110.9800 182° South 126 145 3,200 -787 Descending Albuquerque Center

Login

Don't have an account? Register now (free) for customized features, flight alerts, and more!